CheckWX is a tool to help pilots better visualize weather data.  It is not intended as a substitute for an official pre-flight weather briefing.

00:18:05 UTC

KBAF TAF
Westfield-Barnes Regional Airport
Westfield/Springfield, Massachusetts, USA
KBAF 222323Z 2300/2324 06006KT P6SM -RA OVC009 FM230100 07005KT 3SM -SHRA BR OVC008 FM230300 06004KT 2SM -SHRA BR OVC008 FM230900 33004KT 2SM -SHRA BR OVC010 FM231200 31004KT P6SM BKN020 FM231400 30009KT P6SM SCT250

Oct-23@
00:00 UTC

Oct-23 @ 00:00 UTC

Oct-23@
01:00 UTC

Oct-23 @ 01:00 UTC

KBAF 222323Z 2300/2324 06006KT P6SM -RA OVC009
Wind
  • 060° at 6 KTS
Conditions
Light Rain
Cloud Levels
  • Overcast at 900' AGL

Oct-23@
01:00 UTC

Oct-23 @ 01:00 UTC

Oct-23@
03:00 UTC

Oct-23 @ 03:00 UTC

FM230100 07005KT 3SM -SHRA BR OVC008

From

From Standard forecast or significant change

Wind
  • 070° at 5 KTS
Conditions
Light Rain, Mist
Cloud Levels
  • Overcast at 800' AGL

Oct-23@
03:00 UTC

Oct-23 @ 03:00 UTC

Oct-23@
09:00 UTC

Oct-23 @ 09:00 UTC

FM230300 06004KT 2SM -SHRA BR OVC008

From

From Standard forecast or significant change

Wind
  • 060° at 4 KTS
Conditions
Light Rain, Mist
Cloud Levels
  • Overcast at 800' AGL

Oct-23@
09:00 UTC

Oct-23 @ 09:00 UTC

Oct-23@
12:00 UTC

Oct-23 @ 12:00 UTC

FM230900 33004KT 2SM -SHRA BR OVC010

From

From Standard forecast or significant change

Wind
  • 330° at 4 KTS
Conditions
Light Rain, Mist
Cloud Levels
  • Overcast at 1,000' AGL

Oct-23@
12:00 UTC

Oct-23 @ 12:00 UTC

Oct-23@
14:00 UTC

Oct-23 @ 14:00 UTC

FM231200 31004KT P6SM BKN020

From

From Standard forecast or significant change

Wind
  • 310° at 4 KTS
Cloud Levels
  • Broken at 2,000' AGL

Oct-23@
14:00 UTC

Oct-23 @ 14:00 UTC

Oct-24@
00:00 UTC

Oct-24 @ 00:00 UTC

FM231400 30009KT P6SM SCT250

From

From Standard forecast or significant change

Wind
  • 300° at 9 KTS
Cloud Levels
  • Scattered at 25,000' AGL